sensor_id;sensor_type;location;lat;lon;timestamp;P1;durP1;ratioP1;P2;durP2;ratioP2
14268;SDS011;7218;51.480;7.006;2022-08-20T00:00:46;18.85;;;15.88;;
14268;SDS011;7218;51.480;7.006;2022-08-20T00:03:15;18.58;;;15.73;;
14268;SDS011;7218;51.480;7.006;2022-08-20T00:05:45;21.65;;;15.93;;
14268;SDS011;7218;51.480;7.006;2022-08-20T00:08:16;20.48;;;16.02;;
14268;SDS011;7218;51.480;7.006;2022-08-20T00:10:45;21.95;;;17.58;;
14268;SDS011;7218;51.480;7.006;2022-08-20T00:13:14;18.73;;;15.85;;
14268;SDS011;7218;51.480;7.006;2022-08-20T00:15:43;20.55;;;16.80;;
14268;SDS011;7218;51.480;7.006;2022-08-20T00:18:10;19.17;;;16.70;;
14268;SDS011;7218;51.480;7.006;2022-08-20T00:20:38;19.45;;;16.75;;
14268;SDS011;7218;51.480;7.006;2022-08-20T00:23:06;18.92;;;16.55;;
14268;SDS011;7218;51.480;7.006;2022-08-20T00:25:33;20.63;;;16.77;;
14268;SDS011;7218;51.480;7.006;2022-08-20T00:28:01;19.25;;;15.57;;
14268;SDS011;7218;51.480;7.006;2022-08-20T00:30:31;18.02;;;15.88;;
14268;SDS011;7218;51.480;7.006;2022-08-20T00:33:00;19.00;;;15.82;;
14268;SDS011;7218;51.480;7.006;2022-08-20T00:35:29;21.13;;;16.90;;
14268;SDS011;7218;51.480;7.006;2022-08-20T00:37:58;19.20;;;16.38;;
14268;SDS011;7218;51.480;7.006;2022-08-20T00:40:26;20.52;;;16.23;;
14268;SDS011;7218;51.480;7.006;2022-08-20T00:42:58;18.92;;;16.20;;
14268;SDS011;7218;51.480;7.006;2022-08-20T00:45:29;19.55;;;16.33;;
14268;SDS011;7218;51.480;7.006;2022-08-20T00:47:58;19.35;;;16.65;;
14268;SDS011;7218;51.480;7.006;2022-08-20T00:50:27;19.60;;;16.25;;
14268;SDS011;7218;51.480;7.006;2022-08-20T00:52:58;19.67;;;16.63;;
14268;SDS011;7218;51.480;7.006;2022-08-20T00:55:27;18.85;;;16.42;;
14268;SDS011;7218;51.480;7.006;2022-08-20T00:57:56;18.50;;;16.00;;
14268;SDS011;7218;51.480;7.006;2022-08-20T01:00:26;19.67;;;16.20;;
14268;SDS011;7218;51.480;7.006;2022-08-20T01:02:56;20.27;;;16.58;;
14268;SDS011;7218;51.480;7.006;2022-08-20T01:05:24;18.10;;;15.98;;
14268;SDS011;7218;51.480;7.006;2022-08-20T01:07:51;19.88;;;17.13;;
14268;SDS011;7218;51.480;7.006;2022-08-20T01:10:20;20.52;;;16.92;;
14268;SDS011;7218;51.480;7.006;2022-08-20T01:12:51;20.00;;;17.30;;
14268;SDS011;7218;51.480;7.006;2022-08-20T01:15:21;19.17;;;16.50;;
14268;SDS011;7218;51.480;7.006;2022-08-20T01:17:51;19.80;;;16.55;;
14268;SDS011;7218;51.480;7.006;2022-08-20T01:20:23;19.05;;;16.27;;
14268;SDS011;7218;51.480;7.006;2022-08-20T01:22:52;20.52;;;17.20;;
14268;SDS011;7218;51.480;7.006;2022-08-20T01:25:45;19.27;;;16.13;;
14268;SDS011;7218;51.480;7.006;2022-08-20T01:28:15;18.80;;;16.60;;
14268;SDS011;7218;51.480;7.006;2022-08-20T01:30:45;20.90;;;17.27;;
14268;SDS011;7218;51.480;7.006;2022-08-20T01:33:12;20.67;;;17.15;;
14268;SDS011;7218;51.480;7.006;2022-08-20T01:35:39;21.17;;;17.40;;
14268;SDS011;7218;51.480;7.006;2022-08-20T01:38:07;21.30;;;18.10;;
14268;SDS011;7218;51.480;7.006;2022-08-20T01:40:49;19.95;;;17.30;;
14268;SDS011;7218;51.480;7.006;2022-08-20T01:43:24;22.05;;;17.42;;
14268;SDS011;7218;51.480;7.006;2022-08-20T01:45:51;20.30;;;17.88;;
14268;SDS011;7218;51.480;7.006;2022-08-20T01:48:18;21.90;;;17.63;;
14268;SDS011;7218;51.480;7.006;2022-08-20T01:50:48;23.17;;;17.48;;
14268;SDS011;7218;51.480;7.006;2022-08-20T01:53:23;20.23;;;17.45;;
14268;SDS011;7218;51.480;7.006;2022-08-20T01:55:54;20.65;;;18.00;;
14268;SDS011;7218;51.480;7.006;2022-08-20T01:58:21;21.20;;;17.42;;
14268;SDS011;7218;51.480;7.006;2022-08-20T02:00:48;24.60;;;18.35;;
14268;SDS011;7218;51.480;7.006;2022-08-20T02:03:15;22.88;;;18.45;;
14268;SDS011;7218;51.480;7.006;2022-08-20T02:05:41;22.27;;;17.17;;
14268;SDS011;7218;51.480;7.006;2022-08-20T02:08:08;21.38;;;17.42;;
14268;SDS011;7218;51.480;7.006;2022-08-20T02:10:35;21.23;;;17.23;;
14268;SDS011;7218;51.480;7.006;2022-08-20T02:13:03;23.70;;;18.52;;
14268;SDS011;7218;51.480;7.006;2022-08-20T02:15:32;23.23;;;18.13;;
14268;SDS011;7218;51.480;7.006;2022-08-20T02:17:58;20.95;;;17.83;;
14268;SDS011;7218;51.480;7.006;2022-08-20T02:20:28;21.70;;;18.50;;
14268;SDS011;7218;51.480;7.006;2022-08-20T02:22:57;21.02;;;18.38;;
14268;SDS011;7218;51.480;7.006;2022-08-20T02:25:26;22.17;;;17.50;;
14268;SDS011;7218;51.480;7.006;2022-08-20T02:27:58;25.10;;;18.35;;
14268;SDS011;7218;51.480;7.006;2022-08-20T02:30:29;22.67;;;17.55;;
14268;SDS011;7218;51.480;7.006;2022-08-20T02:32:58;19.27;;;16.23;;
14268;SDS011;7218;51.480;7.006;2022-08-20T02:35:26;18.05;;;14.60;;
14268;SDS011;7218;51.480;7.006;2022-08-20T02:37:53;19.30;;;14.70;;
14268;SDS011;7218;51.480;7.006;2022-08-20T02:40:21;15.30;;;13.50;;
14268;SDS011;7218;51.480;7.006;2022-08-20T02:42:50;15.73;;;12.98;;
14268;SDS011;7218;51.480;7.006;2022-08-20T02:45:17;13.57;;;12.18;;
14268;SDS011;7218;51.480;7.006;2022-08-20T02:47:48;12.02;;;10.73;;
14268;SDS011;7218;51.480;7.006;2022-08-20T02:50:17;12.85;;;10.52;;
14268;SDS011;7218;51.480;7.006;2022-08-20T02:52:49;11.88;;;10.15;;
14268;SDS011;7218;51.480;7.006;2022-08-20T02:55:15;11.50;;;10.25;;
14268;SDS011;7218;51.480;7.006;2022-08-20T02:57:42;14.30;;;10.05;;
14268;SDS011;7218;51.480;7.006;2022-08-20T03:00:09;11.02;;;9.60;;
14268;SDS011;7218;51.480;7.006;2022-08-20T03:02:38;12.43;;;8.75;;
14268;SDS011;7218;51.480;7.006;2022-08-20T03:05:06;10.25;;;8.57;;
14268;SDS011;7218;51.480;7.006;2022-08-20T03:07:38;12.27;;;9.25;;
14268;SDS011;7218;51.480;7.006;2022-08-20T03:10:06;10.20;;;9.20;;
14268;SDS011;7218;51.480;7.006;2022-08-20T03:12:33;10.50;;;9.13;;
14268;SDS011;7218;51.480;7.006;2022-08-20T03:14:59;11.02;;;9.23;;
14268;SDS011;7218;51.480;7.006;2022-08-20T03:17:26;11.18;;;9.23;;
14268;SDS011;7218;51.480;7.006;2022-08-20T03:19:52;11.95;;;9.35;;
14268;SDS011;7218;51.480;7.006;2022-08-20T03:22:20;10.05;;;9.02;;
14268;SDS011;7218;51.480;7.006;2022-08-20T03:24:47;13.50;;;9.40;;
14268;SDS011;7218;51.480;7.006;2022-08-20T03:27:13;13.35;;;9.40;;
14268;SDS011;7218;51.480;7.006;2022-08-20T03:29:40;14.30;;;10.35;;
14268;SDS011;7218;51.480;7.006;2022-08-20T03:32:06;15.95;;;10.82;;
14268;SDS011;7218;51.480;7.006;2022-08-20T03:34:33;15.07;;;10.73;;
14268;SDS011;7218;51.480;7.006;2022-08-20T03:36:59;12.63;;;11.25;;
14268;SDS011;7218;51.480;7.006;2022-08-20T03:39:28;13.35;;;11.45;;
14268;SDS011;7218;51.480;7.006;2022-08-20T03:41:54;14.68;;;11.07;;
14268;SDS011;7218;51.480;7.006;2022-08-20T03:44:21;14.13;;;11.55;;
14268;SDS011;7218;51.480;7.006;2022-08-20T03:46:48;14.85;;;12.20;;
14268;SDS011;7218;51.480;7.006;2022-08-20T03:49:14;16.50;;;13.25;;
14268;SDS011;7218;51.480;7.006;2022-08-20T03:51:40;16.52;;;13.05;;
14268;SDS011;7218;51.480;7.006;2022-08-20T03:54:07;17.13;;;13.68;;
14268;SDS011;7218;51.480;7.006;2022-08-20T03:56:35;18.10;;;13.63;;
14268;SDS011;7218;51.480;7.006;2022-08-20T03:59:01;16.48;;;12.88;;
14268;SDS011;7218;51.480;7.006;2022-08-20T04:01:28;18.65;;;13.60;;
14268;SDS011;7218;51.480;7.006;2022-08-20T04:03:55;17.48;;;14.30;;
14268;SDS011;7218;51.480;7.006;2022-08-20T04:06:22;17.17;;;13.88;;
14268;SDS011;7218;51.480;7.006;2022-08-20T04:08:49;18.55;;;14.13;;
14268;SDS011;7218;51.480;7.006;2022-08-20T04:11:18;18.40;;;14.43;;
14268;SDS011;7218;51.480;7.006;2022-08-20T04:13:45;15.77;;;13.15;;
14268;SDS011;7218;51.480;7.006;2022-08-20T04:16:12;20.13;;;14.93;;
14268;SDS011;7218;51.480;7.006;2022-08-20T04:18:38;18.63;;;14.98;;
14268;SDS011;7218;51.480;7.006;2022-08-20T04:21:05;18.42;;;14.75;;
14268;SDS011;7218;51.480;7.006;2022-08-20T04:23:32;18.13;;;14.45;;
14268;SDS011;7218;51.480;7.006;2022-08-20T04:25:58;21.33;;;15.05;;
14268;SDS011;7218;51.480;7.006;2022-08-20T04:28:25;20.67;;;15.15;;
14268;SDS011;7218;51.480;7.006;2022-08-20T04:30:54;18.17;;;14.68;;
14268;SDS011;7218;51.480;7.006;2022-08-20T04:33:22;19.55;;;15.25;;
14268;SDS011;7218;51.480;7.006;2022-08-20T04:35:50;21.77;;;15.77;;
14268;SDS011;7218;51.480;7.006;2022-08-20T04:38:17;22.33;;;15.88;;
14268;SDS011;7218;51.480;7.006;2022-08-20T04:40:45;20.73;;;15.60;;
14268;SDS011;7218;51.480;7.006;2022-08-20T04:43:24;19.42;;;15.52;;
14268;SDS011;7218;51.480;7.006;2022-08-20T04:45:52;18.50;;;14.60;;
14268;SDS011;7218;51.480;7.006;2022-08-20T04:48:22;20.45;;;15.82;;
14268;SDS011;7218;51.480;7.006;2022-08-20T04:50:50;20.50;;;14.85;;
14268;SDS011;7218;51.480;7.006;2022-08-20T04:53:18;17.92;;;14.40;;
14268;SDS011;7218;51.480;7.006;2022-08-20T04:55:47;18.85;;;15.02;;
14268;SDS011;7218;51.480;7.006;2022-08-20T04:58:16;17.27;;;14.02;;
14268;SDS011;7218;51.480;7.006;2022-08-20T05:00:45;20.55;;;14.50;;
14268;SDS011;7218;51.480;7.006;2022-08-20T05:03:14;19.83;;;15.38;;
14268;SDS011;7218;51.480;7.006;2022-08-20T05:05:41;20.63;;;14.65;;
14268;SDS011;7218;51.480;7.006;2022-08-20T05:08:09;19.42;;;14.38;;
14268;SDS011;7218;51.480;7.006;2022-08-20T05:10:36;21.70;;;15.40;;
14268;SDS011;7218;51.480;7.006;2022-08-20T05:13:03;21.33;;;16.85;;
14268;SDS011;7218;51.480;7.006;2022-08-20T05:15:30;22.83;;;16.88;;
14268;SDS011;7218;51.480;7.006;2022-08-20T05:17:57;22.52;;;17.55;;
14268;SDS011;7218;51.480;7.006;2022-08-20T05:20:28;21.75;;;17.55;;
14268;SDS011;7218;51.480;7.006;2022-08-20T05:22:56;26.42;;;18.50;;
14268;SDS011;7218;51.480;7.006;2022-08-20T05:25:23;21.35;;;17.27;;
14268;SDS011;7218;51.480;7.006;2022-08-20T05:27:54;22.15;;;17.60;;
14268;SDS011;7218;51.480;7.006;2022-08-20T05:30:23;23.58;;;18.17;;
14268;SDS011;7218;51.480;7.006;2022-08-20T05:32:50;23.08;;;18.60;;
14268;SDS011;7218;51.480;7.006;2022-08-20T05:35:16;25.05;;;18.85;;
14268;SDS011;7218;51.480;7.006;2022-08-20T05:37:44;24.80;;;19.55;;
14268;SDS011;7218;51.480;7.006;2022-08-20T05:40:12;24.70;;;19.30;;
14268;SDS011;7218;51.480;7.006;2022-08-20T05:42:40;25.38;;;19.30;;
14268;SDS011;7218;51.480;7.006;2022-08-20T05:45:07;22.40;;;17.95;;
14268;SDS011;7218;51.480;7.006;2022-08-20T05:47:37;23.23;;;18.75;;
14268;SDS011;7218;51.480;7.006;2022-08-20T05:50:06;21.30;;;17.27;;
14268;SDS011;7218;51.480;7.006;2022-08-20T05:52:34;22.27;;;17.08;;
14268;SDS011;7218;51.480;7.006;2022-08-20T05:55:03;23.75;;;17.48;;
14268;SDS011;7218;51.480;7.006;2022-08-20T05:57:30;22.08;;;17.80;;
14268;SDS011;7218;51.480;7.006;2022-08-20T05:59:58;21.02;;;16.98;;
14268;SDS011;7218;51.480;7.006;2022-08-20T06:02:26;18.17;;;16.02;;
14268;SDS011;7218;51.480;7.006;2022-08-20T06:05:10;17.80;;;15.90;;
14268;SDS011;7218;51.480;7.006;2022-08-20T06:07:36;18.70;;;15.57;;
14268;SDS011;7218;51.480;7.006;2022-08-20T06:10:05;17.65;;;15.57;;
14268;SDS011;7218;51.480;7.006;2022-08-20T06:12:33;18.23;;;14.88;;
14268;SDS011;7218;51.480;7.006;2022-08-20T06:14:59;17.85;;;15.95;;
14268;SDS011;7218;51.480;7.006;2022-08-20T06:17:26;18.55;;;15.50;;
14268;SDS011;7218;51.480;7.006;2022-08-20T06:19:53;18.92;;;15.93;;
14268;SDS011;7218;51.480;7.006;2022-08-20T06:22:20;20.92;;;17.25;;
14268;SDS011;7218;51.480;7.006;2022-08-20T06:24:46;20.27;;;16.83;;
14268;SDS011;7218;51.480;7.006;2022-08-20T06:27:15;19.02;;;16.33;;
14268;SDS011;7218;51.480;7.006;2022-08-20T06:29:42;18.95;;;15.90;;
14268;SDS011;7218;51.480;7.006;2022-08-20T06:32:08;19.48;;;16.35;;
14268;SDS011;7218;51.480;7.006;2022-08-20T06:34:35;20.27;;;16.30;;
14268;SDS011;7218;51.480;7.006;2022-08-20T06:37:11;20.88;;;17.50;;
14268;SDS011;7218;51.480;7.006;2022-08-20T06:39:40;20.95;;;16.92;;
14268;SDS011;7218;51.480;7.006;2022-08-20T06:42:06;20.85;;;17.35;;
14268;SDS011;7218;51.480;7.006;2022-08-20T06:44:34;23.17;;;18.23;;
14268;SDS011;7218;51.480;7.006;2022-08-20T06:47:02;21.13;;;17.85;;
14268;SDS011;7218;51.480;7.006;2022-08-20T06:49:29;21.05;;;18.67;;
14268;SDS011;7218;51.480;7.006;2022-08-20T06:51:56;20.83;;;18.13;;
14268;SDS011;7218;51.480;7.006;2022-08-20T06:54:23;22.45;;;18.40;;
14268;SDS011;7218;51.480;7.006;2022-08-20T06:56:49;24.40;;;19.23;;
14268;SDS011;7218;51.480;7.006;2022-08-20T06:59:18;22.10;;;18.38;;
14268;SDS011;7218;51.480;7.006;2022-08-20T07:01:46;22.73;;;19.15;;
14268;SDS011;7218;51.480;7.006;2022-08-20T07:04:13;24.42;;;20.23;;
14268;SDS011;7218;51.480;7.006;2022-08-20T07:06:40;22.52;;;20.05;;
14268;SDS011;7218;51.480;7.006;2022-08-20T07:09:06;24.10;;;20.25;;
14268;SDS011;7218;51.480;7.006;2022-08-20T07:11:33;24.90;;;21.02;;
14268;SDS011;7218;51.480;7.006;2022-08-20T07:13:59;25.73;;;20.17;;
14268;SDS011;7218;51.480;7.006;2022-08-20T07:16:28;24.70;;;20.40;;
14268;SDS011;7218;51.480;7.006;2022-08-20T07:18:56;20.92;;;18.77;;
14268;SDS011;7218;51.480;7.006;2022-08-20T07:21:23;24.98;;;19.40;;
14268;SDS011;7218;51.480;7.006;2022-08-20T07:23:49;20.77;;;18.02;;
14268;SDS011;7218;51.480;7.006;2022-08-20T07:26:17;18.60;;;16.60;;
14268;SDS011;7218;51.480;7.006;2022-08-20T07:28:44;17.75;;;15.30;;
14268;SDS011;7218;51.480;7.006;2022-08-20T07:31:11;19.15;;;15.60;;
14268;SDS011;7218;51.480;7.006;2022-08-20T07:33:56;18.08;;;16.17;;
14268;SDS011;7218;51.480;7.006;2022-08-20T07:36:23;20.27;;;16.42;;
14268;SDS011;7218;51.480;7.006;2022-08-20T07:38:49;19.92;;;15.68;;
14268;SDS011;7218;51.480;7.006;2022-08-20T07:41:16;18.83;;;16.73;;
14268;SDS011;7218;51.480;7.006;2022-08-20T07:43:44;20.42;;;16.60;;
14268;SDS011;7218;51.480;7.006;2022-08-20T07:46:13;17.67;;;15.77;;
14268;SDS011;7218;51.480;7.006;2022-08-20T07:48:43;17.20;;;15.40;;
14268;SDS011;7218;51.480;7.006;2022-08-20T07:51:15;21.48;;;17.70;;
14268;SDS011;7218;51.480;7.006;2022-08-20T07:53:44;18.58;;;16.08;;
14268;SDS011;7218;51.480;7.006;2022-08-20T07:56:13;18.75;;;15.57;;
14268;SDS011;7218;51.480;7.006;2022-08-20T07:58:41;14.90;;;13.27;;
14268;SDS011;7218;51.480;7.006;2022-08-20T08:01:11;15.38;;;13.57;;
14268;SDS011;7218;51.480;7.006;2022-08-20T08:03:37;15.07;;;12.63;;
14268;SDS011;7218;51.480;7.006;2022-08-20T08:06:04;15.02;;;12.75;;
14268;SDS011;7218;51.480;7.006;2022-08-20T08:08:32;15.75;;;14.05;;
14268;SDS011;7218;51.480;7.006;2022-08-20T08:10:59;18.85;;;16.85;;
14268;SDS011;7218;51.480;7.006;2022-08-20T08:13:29;18.10;;;16.20;;
14268;SDS011;7218;51.480;7.006;2022-08-20T08:16:00;17.88;;;16.08;;
14268;SDS011;7218;51.480;7.006;2022-08-20T08:18:28;15.20;;;13.70;;
14268;SDS011;7218;51.480;7.006;2022-08-20T08:21:00;15.65;;;13.65;;
14268;SDS011;7218;51.480;7.006;2022-08-20T08:23:27;19.70;;;15.20;;
14268;SDS011;7218;51.480;7.006;2022-08-20T08:25:55;15.65;;;13.75;;
14268;SDS011;7218;51.480;7.006;2022-08-20T08:28:23;16.00;;;14.30;;
14268;SDS011;7218;51.480;7.006;2022-08-20T08:30:49;15.70;;;13.90;;
14268;SDS011;7218;51.480;7.006;2022-08-20T08:33:19;15.93;;;14.07;;
14268;SDS011;7218;51.480;7.006;2022-08-20T08:35:54;16.10;;;14.43;;
14268;SDS011;7218;51.480;7.006;2022-08-20T08:38:22;11.57;;;10.15;;
14268;SDS011;7218;51.480;7.006;2022-08-20T08:40:50;11.88;;;10.30;;
14268;SDS011;7218;51.480;7.006;2022-08-20T08:43:19;9.73;;;8.73;;
14268;SDS011;7218;51.480;7.006;2022-08-20T08:45:51;9.80;;;8.80;;
14268;SDS011;7218;51.480;7.006;2022-08-20T08:48:25;10.73;;;8.25;;
14268;SDS011;7218;51.480;7.006;2022-08-20T08:50:57;10.70;;;9.15;;
14268;SDS011;7218;51.480;7.006;2022-08-20T08:53:27;14.57;;;10.93;;
14268;SDS011;7218;51.480;7.006;2022-08-20T08:55:57;12.30;;;11.10;;
14268;SDS011;7218;51.480;7.006;2022-08-20T08:58:26;24.13;;;21.50;;
14268;SDS011;7218;51.480;7.006;2022-08-20T09:00:53;29.55;;;24.98;;
14268;SDS011;7218;51.480;7.006;2022-08-20T09:03:21;29.70;;;26.38;;
14268;SDS011;7218;51.480;7.006;2022-08-20T09:05:51;32.55;;;29.00;;
14268;SDS011;7218;51.480;7.006;2022-08-20T09:08:21;33.38;;;29.48;;
14268;SDS011;7218;51.480;7.006;2022-08-20T09:10:49;33.35;;;29.38;;
14268;SDS011;7218;51.480;7.006;2022-08-20T09:13:16;35.10;;;29.85;;
14268;SDS011;7218;51.480;7.006;2022-08-20T09:15:44;32.28;;;28.13;;
14268;SDS011;7218;51.480;7.006;2022-08-20T09:18:11;30.20;;;24.63;;
14268;SDS011;7218;51.480;7.006;2022-08-20T09:20:37;29.90;;;24.95;;
14268;SDS011;7218;51.480;7.006;2022-08-20T09:23:04;26.65;;;22.95;;
14268;SDS011;7218;51.480;7.006;2022-08-20T09:25:31;26.95;;;22.20;;
14268;SDS011;7218;51.480;7.006;2022-08-20T09:27:57;25.45;;;21.90;;
14268;SDS011;7218;51.480;7.006;2022-08-20T09:30:24;26.23;;;22.70;;
14268;SDS011;7218;51.480;7.006;2022-08-20T09:32:51;25.00;;;22.35;;
14268;SDS011;7218;51.480;7.006;2022-08-20T09:35:18;26.48;;;22.42;;
14268;SDS011;7218;51.480;7.006;2022-08-20T09:37:44;29.98;;;22.90;;
14268;SDS011;7218;51.480;7.006;2022-08-20T09:40:11;26.80;;;22.95;;
14268;SDS011;7218;51.480;7.006;2022-08-20T09:42:38;25.98;;;22.45;;
14268;SDS011;7218;51.480;7.006;2022-08-20T09:45:05;29.55;;;23.35;;
14268;SDS011;7218;51.480;7.006;2022-08-20T09:47:32;29.40;;;23.48;;
14268;SDS011;7218;51.480;7.006;2022-08-20T09:50:00;29.55;;;23.77;;
14268;SDS011;7218;51.480;7.006;2022-08-20T09:52:27;29.23;;;25.33;;
14268;SDS011;7218;51.480;7.006;2022-08-20T09:54:57;27.38;;;23.17;;
14268;SDS011;7218;51.480;7.006;2022-08-20T09:57:25;26.67;;;22.33;;
14268;SDS011;7218;51.480;7.006;2022-08-20T09:59:53;25.88;;;20.65;;
14268;SDS011;7218;51.480;7.006;2022-08-20T10:02:22;24.05;;;19.95;;
14268;SDS011;7218;51.480;7.006;2022-08-20T10:04:48;24.98;;;20.25;;
14268;SDS011;7218;51.480;7.006;2022-08-20T10:07:16;23.10;;;20.63;;
14268;SDS011;7218;51.480;7.006;2022-08-20T10:09:43;26.38;;;19.45;;
14268;SDS011;7218;51.480;7.006;2022-08-20T10:12:09;23.55;;;19.60;;
14268;SDS011;7218;51.480;7.006;2022-08-20T10:14:36;23.38;;;18.48;;
14268;SDS011;7218;51.480;7.006;2022-08-20T10:17:02;23.08;;;18.30;;
14268;SDS011;7218;51.480;7.006;2022-08-20T10:19:29;22.25;;;17.70;;
14268;SDS011;7218;51.480;7.006;2022-08-20T10:21:56;19.35;;;16.10;;
14268;SDS011;7218;51.480;7.006;2022-08-20T10:24:25;21.65;;;15.80;;
14268;SDS011;7218;51.480;7.006;2022-08-20T10:26:53;19.83;;;15.93;;
14268;SDS011;7218;51.480;7.006;2022-08-20T10:29:20;18.13;;;15.57;;
14268;SDS011;7218;51.480;7.006;2022-08-20T10:31:47;18.20;;;14.77;;
14268;SDS011;7218;51.480;7.006;2022-08-20T10:34:13;22.23;;;15.88;;
14268;SDS011;7218;51.480;7.006;2022-08-20T10:36:40;18.80;;;16.05;;
14268;SDS011;7218;51.480;7.006;2022-08-20T10:39:07;20.00;;;15.30;;
14268;SDS011;7218;51.480;7.006;2022-08-20T10:41:35;18.90;;;15.18;;
14268;SDS011;7218;51.480;7.006;2022-08-20T10:44:02;18.98;;;13.65;;
14268;SDS011;7218;51.480;7.006;2022-08-20T10:46:28;18.27;;;14.15;;
14268;SDS011;7218;51.480;7.006;2022-08-20T10:48:55;18.90;;;14.38;;
14268;SDS011;7218;51.480;7.006;2022-08-20T10:51:22;17.65;;;14.18;;
14268;SDS011;7218;51.480;7.006;2022-08-20T10:53:48;16.35;;;14.20;;
14268;SDS011;7218;51.480;7.006;2022-08-20T10:56:15;18.50;;;14.10;;
14268;SDS011;7218;51.480;7.006;2022-08-20T10:58:42;15.77;;;13.07;;
14268;SDS011;7218;51.480;7.006;2022-08-20T11:01:09;15.60;;;12.43;;
14268;SDS011;7218;51.480;7.006;2022-08-20T11:03:35;18.95;;;13.27;;
14268;SDS011;7218;51.480;7.006;2022-08-20T11:06:02;18.13;;;13.55;;
14268;SDS011;7218;51.480;7.006;2022-08-20T11:08:29;16.77;;;13.43;;
14268;SDS011;7218;51.480;7.006;2022-08-20T11:10:55;19.75;;;13.82;;
14268;SDS011;7218;51.480;7.006;2022-08-20T11:13:22;15.43;;;11.77;;
14268;SDS011;7218;51.480;7.006;2022-08-20T11:15:50;19.35;;;13.48;;
14268;SDS011;7218;51.480;7.006;2022-08-20T11:18:16;21.60;;;13.90;;
14268;SDS011;7218;51.480;7.006;2022-08-20T11:20:43;18.02;;;13.85;;
14268;SDS011;7218;51.480;7.006;2022-08-20T11:23:10;17.73;;;13.23;;
14268;SDS011;7218;51.480;7.006;2022-08-20T11:25:36;18.48;;;13.80;;
14268;SDS011;7218;51.480;7.006;2022-08-20T11:28:05;16.52;;;12.95;;
14268;SDS011;7218;51.480;7.006;2022-08-20T11:30:33;15.27;;;11.98;;
14268;SDS011;7218;51.480;7.006;2022-08-20T11:33:03;19.23;;;14.73;;
14268;SDS011;7218;51.480;7.006;2022-08-20T11:35:30;19.38;;;14.25;;
14268;SDS011;7218;51.480;7.006;2022-08-20T11:37:59;18.53;;;13.63;;
14268;SDS011;7218;51.480;7.006;2022-08-20T11:40:27;16.63;;;12.10;;
14268;SDS011;7218;51.480;7.006;2022-08-20T11:42:55;15.30;;;12.63;;
14268;SDS011;7218;51.480;7.006;2022-08-20T11:45:22;13.80;;;11.52;;
14268;SDS011;7218;51.480;7.006;2022-08-20T11:47:48;14.85;;;11.90;;
14268;SDS011;7218;51.480;7.006;2022-08-20T11:50:17;14.35;;;10.95;;
14268;SDS011;7218;51.480;7.006;2022-08-20T11:52:45;14.43;;;11.43;;
14268;SDS011;7218;51.480;7.006;2022-08-20T11:55:12;21.08;;;15.45;;
14268;SDS011;7218;51.480;7.006;2022-08-20T11:57:41;14.35;;;11.27;;
14268;SDS011;7218;51.480;7.006;2022-08-20T12:00:10;15.38;;;11.98;;
14268;SDS011;7218;51.480;7.006;2022-08-20T12:02:39;15.68;;;11.35;;
14268;SDS011;7218;51.480;7.006;2022-08-20T12:05:06;16.33;;;10.88;;
14268;SDS011;7218;51.480;7.006;2022-08-20T12:07:34;13.50;;;10.15;;
14268;SDS011;7218;51.480;7.006;2022-08-20T12:10:01;11.68;;;9.25;;
14268;SDS011;7218;51.480;7.006;2022-08-20T12:12:30;11.00;;;8.30;;
14268;SDS011;7218;51.480;7.006;2022-08-20T12:14:56;10.30;;;7.40;;
14268;SDS011;7218;51.480;7.006;2022-08-20T12:17:24;8.77;;;6.70;;
14268;SDS011;7218;51.480;7.006;2022-08-20T12:19:52;9.00;;;6.53;;
14268;SDS011;7218;51.480;7.006;2022-08-20T12:22:20;12.65;;;9.30;;
14268;SDS011;7218;51.480;7.006;2022-08-20T12:24:48;11.10;;;8.65;;
14268;SDS011;7218;51.480;7.006;2022-08-20T12:27:21;12.68;;;9.40;;
14268;SDS011;7218;51.480;7.006;2022-08-20T12:29:51;12.27;;;9.77;;
14268;SDS011;7218;51.480;7.006;2022-08-20T12:32:18;10.38;;;9.07;;
14268;SDS011;7218;51.480;7.006;2022-08-20T12:34:46;14.10;;;11.00;;
14268;SDS011;7218;51.480;7.006;2022-08-20T12:37:14;13.43;;;9.98;;
14268;SDS011;7218;51.480;7.006;2022-08-20T12:39:43;10.70;;;8.63;;
14268;SDS011;7218;51.480;7.006;2022-08-20T12:42:12;11.27;;;9.07;;
14268;SDS011;7218;51.480;7.006;2022-08-20T12:44:39;13.65;;;10.18;;
14268;SDS011;7218;51.480;7.006;2022-08-20T12:47:08;12.15;;;10.13;;
14268;SDS011;7218;51.480;7.006;2022-08-20T12:49:36;10.98;;;9.18;;
14268;SDS011;7218;51.480;7.006;2022-08-20T12:52:05;11.25;;;10.07;;
14268;SDS011;7218;51.480;7.006;2022-08-20T12:54:32;15.82;;;13.32;;
14268;SDS011;7218;51.480;7.006;2022-08-20T12:56:59;27.35;;;22.77;;
14268;SDS011;7218;51.480;7.006;2022-08-20T12:59:27;18.67;;;15.60;;
14268;SDS011;7218;51.480;7.006;2022-08-20T13:01:53;15.10;;;12.25;;
14268;SDS011;7218;51.480;7.006;2022-08-20T13:04:20;13.73;;;11.88;;
14268;SDS011;7218;51.480;7.006;2022-08-20T13:06:47;10.20;;;8.43;;
14268;SDS011;7218;51.480;7.006;2022-08-20T13:09:15;10.25;;;5.85;;
14268;SDS011;7218;51.480;7.006;2022-08-20T13:11:42;7.05;;;4.53;;
14268;SDS011;7218;51.480;7.006;2022-08-20T13:14:09;7.53;;;4.03;;
14268;SDS011;7218;51.480;7.006;2022-08-20T13:16:37;8.60;;;4.82;;
14268;SDS011;7218;51.480;7.006;2022-08-20T13:19:03;7.22;;;4.78;;
14268;SDS011;7218;51.480;7.006;2022-08-20T13:21:30;7.55;;;4.47;;
14268;SDS011;7218;51.480;7.006;2022-08-20T13:23:56;11.65;;;4.65;;
14268;SDS011;7218;51.480;7.006;2022-08-20T13:26:23;9.10;;;4.70;;
14268;SDS011;7218;51.480;7.006;2022-08-20T13:28:49;7.38;;;4.45;;
14268;SDS011;7218;51.480;7.006;2022-08-20T13:31:15;9.32;;;5.13;;
14268;SDS011;7218;51.480;7.006;2022-08-20T13:33:43;8.45;;;3.53;;
14268;SDS011;7218;51.480;7.006;2022-08-20T13:36:10;7.90;;;3.92;;
14268;SDS011;7218;51.480;7.006;2022-08-20T13:38:37;9.07;;;4.18;;
14268;SDS011;7218;51.480;7.006;2022-08-20T13:41:03;6.22;;;3.30;;
14268;SDS011;7218;51.480;7.006;2022-08-20T13:43:30;8.80;;;4.18;;
14268;SDS011;7218;51.480;7.006;2022-08-20T13:45:57;6.82;;;2.83;;
14268;SDS011;7218;51.480;7.006;2022-08-20T13:48:23;7.22;;;3.47;;
14268;SDS011;7218;51.480;7.006;2022-08-20T13:50:51;5.13;;;2.97;;
14268;SDS011;7218;51.480;7.006;2022-08-20T13:53:18;5.45;;;2.90;;
14268;SDS011;7218;51.480;7.006;2022-08-20T13:55:44;7.63;;;4.28;;
14268;SDS011;7218;51.480;7.006;2022-08-20T13:58:11;6.43;;;3.58;;
14268;SDS011;7218;51.480;7.006;2022-08-20T14:00:38;7.97;;;3.20;;
14268;SDS011;7218;51.480;7.006;2022-08-20T14:03:05;9.20;;;4.35;;
14268;SDS011;7218;51.480;7.006;2022-08-20T14:05:32;9.10;;;4.10;;
14268;SDS011;7218;51.480;7.006;2022-08-20T14:08:04;6.70;;;3.72;;
14268;SDS011;7218;51.480;7.006;2022-08-20T14:10:32;19.45;;;12.50;;
14268;SDS011;7218;51.480;7.006;2022-08-20T14:12:59;10.43;;;5.30;;
14268;SDS011;7218;51.480;7.006;2022-08-20T14:15:27;9.20;;;4.72;;
14268;SDS011;7218;51.480;7.006;2022-08-20T14:17:55;9.68;;;4.25;;
14268;SDS011;7218;51.480;7.006;2022-08-20T14:20:23;9.15;;;4.20;;
14268;SDS011;7218;51.480;7.006;2022-08-20T14:22:51;12.43;;;5.53;;
14268;SDS011;7218;51.480;7.006;2022-08-20T14:25:20;8.20;;;4.40;;
14268;SDS011;7218;51.480;7.006;2022-08-20T14:27:48;7.60;;;3.58;;
14268;SDS011;7218;51.480;7.006;2022-08-20T14:30:16;7.03;;;3.15;;
14268;SDS011;7218;51.480;7.006;2022-08-20T14:32:44;8.10;;;3.25;;
14268;SDS011;7218;51.480;7.006;2022-08-20T14:35:11;6.78;;;4.10;;
14268;SDS011;7218;51.480;7.006;2022-08-20T14:37:39;8.77;;;4.70;;
14268;SDS011;7218;51.480;7.006;2022-08-20T14:40:09;6.75;;;3.17;;
14268;SDS011;7218;51.480;7.006;2022-08-20T14:42:38;6.00;;;2.72;;